Helsinge, Denmark
Current Conditions -  °F | °C
As of 1:50 PM on Thursday 27 Nov 2014 (Local Time) from EKRK Reporting Station
Few Clouds Few Clouds  
Wind Chill: 37°   Ceiling: Unl
Heat Index: 45°   Visibility: 6mi
Dew Point: 32°   Wind: 18mph
Humidity: 61%   Direction: 130°SE
Pressure: 30.06"   Gusts: NA
Location:  56.02°N, 12.2°E
Report Text: EKRK 271250Z AUTO 13016KT 9999NDV FEW034/// 07/00 Q1018
Loading
Personal Weather Stations






























Interactive Weather Map New forecast layout! Learn more

10-Day Weather Forecast

Advertisements
Track Severe Weather on mobile